sensor_id;sensor_type;location;lat;lon;timestamp;temperature;humidity
43858;DHT22;29507;51.284;5.758;2022-08-20T00:02:21;18.80;99.90
43858;DHT22;29507;51.284;5.758;2022-08-20T00:04:47;18.70;99.90
43858;DHT22;29507;51.284;5.758;2022-08-20T00:07:13;18.70;99.90
43858;DHT22;29507;51.284;5.758;2022-08-20T00:09:39;18.70;99.90
43858;DHT22;29507;51.284;5.758;2022-08-20T00:12:06;18.70;99.90
43858;DHT22;29507;51.284;5.758;2022-08-20T00:14:32;18.70;99.90
43858;DHT22;29507;51.284;5.758;2022-08-20T00:16:58;18.70;99.90
43858;DHT22;29507;51.284;5.758;2022-08-20T00:19:24;18.60;99.90
43858;DHT22;29507;51.284;5.758;2022-08-20T00:21:49;18.60;99.90
43858;DHT22;29507;51.284;5.758;2022-08-20T00:24:15;18.60;99.90
43858;DHT22;29507;51.284;5.758;2022-08-20T00:26:41;18.60;99.90
43858;DHT22;29507;51.284;5.758;2022-08-20T00:29:06;18.50;99.90
43858;DHT22;29507;51.284;5.758;2022-08-20T00:31:32;18.50;99.90
43858;DHT22;29507;51.284;5.758;2022-08-20T00:33:57;18.60;99.90
43858;DHT22;29507;51.284;5.758;2022-08-20T00:36:23;18.50;99.90
43858;DHT22;29507;51.284;5.758;2022-08-20T00:38:49;18.60;99.90
43858;DHT22;29507;51.284;5.758;2022-08-20T00:41:21;18.60;99.90
43858;DHT22;29507;51.284;5.758;2022-08-20T00:43:51;18.60;99.90
43858;DHT22;29507;51.284;5.758;2022-08-20T00:46:27;18.60;99.90
43858;DHT22;29507;51.284;5.758;2022-08-20T00:48:54;18.70;99.90
43858;DHT22;29507;51.284;5.758;2022-08-20T00:51:31;18.70;99.90
43858;DHT22;29507;51.284;5.758;2022-08-20T00:57:18;18.70;99.90
43858;DHT22;29507;51.284;5.758;2022-08-20T00:59:45;18.60;99.90
43858;DHT22;29507;51.284;5.758;2022-08-20T01:02:14;18.70;99.90
43858;DHT22;29507;51.284;5.758;2022-08-20T01:04:40;18.70;99.90
43858;DHT22;29507;51.284;5.758;2022-08-20T01:07:09;18.70;99.90
43858;DHT22;29507;51.284;5.758;2022-08-20T01:09:37;18.70;99.90
43858;DHT22;29507;51.284;5.758;2022-08-20T01:12:04;18.70;99.90
43858;DHT22;29507;51.284;5.758;2022-08-20T01:14:30;18.70;99.90
43858;DHT22;29507;51.284;5.758;2022-08-20T01:17:08;18.70;99.90
43858;DHT22;29507;51.284;5.758;2022-08-20T01:19:45;18.60;99.90
43858;DHT22;29507;51.284;5.758;2022-08-20T01:22:16;18.70;99.90
43858;DHT22;29507;51.284;5.758;2022-08-20T01:25:12;18.60;99.90
43858;DHT22;29507;51.284;5.758;2022-08-20T01:27:38;18.70;99.90
43858;DHT22;29507;51.284;5.758;2022-08-20T01:30:06;18.60;99.90
43858;DHT22;29507;51.284;5.758;2022-08-20T01:32:32;18.70;99.90
43858;DHT22;29507;51.284;5.758;2022-08-20T01:34:57;18.70;99.90
43858;DHT22;29507;51.284;5.758;2022-08-20T01:37:23;18.70;99.90
43858;DHT22;29507;51.284;5.758;2022-08-20T01:39:48;18.70;99.90
43858;DHT22;29507;51.284;5.758;2022-08-20T01:42:30;18.70;99.90
43858;DHT22;29507;51.284;5.758;2022-08-20T01:44:56;18.70;99.90
43858;DHT22;29507;51.284;5.758;2022-08-20T01:47:26;18.80;99.90
43858;DHT22;29507;51.284;5.758;2022-08-20T01:49:56;18.70;99.90
43858;DHT22;29507;51.284;5.758;2022-08-20T01:52:36;18.80;99.90
43858;DHT22;29507;51.284;5.758;2022-08-20T01:55:04;18.80;99.90
43858;DHT22;29507;51.284;5.758;2022-08-20T01:57:30;18.80;99.90
43858;DHT22;29507;51.284;5.758;2022-08-20T01:59:56;18.80;99.90
43858;DHT22;29507;51.284;5.758;2022-08-20T02:02:21;18.80;99.90
43858;DHT22;29507;51.284;5.758;2022-08-20T02:04:48;18.80;99.90
43858;DHT22;29507;51.284;5.758;2022-08-20T02:07:18;18.80;99.90
43858;DHT22;29507;51.284;5.758;2022-08-20T02:09:45;18.80;99.90
43858;DHT22;29507;51.284;5.758;2022-08-20T02:12:11;18.80;99.90
43858;DHT22;29507;51.284;5.758;2022-08-20T02:14:41;18.80;99.90
43858;DHT22;29507;51.284;5.758;2022-08-20T02:17:08;18.70;99.90
43858;DHT22;29507;51.284;5.758;2022-08-20T02:19:41;18.70;99.90
43858;DHT22;29507;51.284;5.758;2022-08-20T02:22:20;18.70;99.90
43858;DHT22;29507;51.284;5.758;2022-08-20T02:24:46;18.70;99.90
43858;DHT22;29507;51.284;5.758;2022-08-20T02:27:12;18.60;99.90
43858;DHT22;29507;51.284;5.758;2022-08-20T02:29:38;18.60;99.90
43858;DHT22;29507;51.284;5.758;2022-08-20T02:32:05;18.70;99.90
43858;DHT22;29507;51.284;5.758;2022-08-20T02:34:31;18.60;99.90
43858;DHT22;29507;51.284;5.758;2022-08-20T02:36:59;18.60;99.90
43858;DHT22;29507;51.284;5.758;2022-08-20T02:39:25;18.60;99.90
43858;DHT22;29507;51.284;5.758;2022-08-20T02:41:51;18.50;99.90
43858;DHT22;29507;51.284;5.758;2022-08-20T02:44:17;18.50;99.90
43858;DHT22;29507;51.284;5.758;2022-08-20T02:46:46;18.50;99.90
43858;DHT22;29507;51.284;5.758;2022-08-20T02:49:15;18.50;99.90
43858;DHT22;29507;51.284;5.758;2022-08-20T02:51:42;18.40;99.90
43858;DHT22;29507;51.284;5.758;2022-08-20T02:54:08;18.40;99.90
43858;DHT22;29507;51.284;5.758;2022-08-20T02:56:34;18.40;99.90
43858;DHT22;29507;51.284;5.758;2022-08-20T02:58:59;18.30;99.90
43858;DHT22;29507;51.284;5.758;2022-08-20T03:01:25;18.40;99.90
43858;DHT22;29507;51.284;5.758;2022-08-20T03:03:51;18.30;99.90
43858;DHT22;29507;51.284;5.758;2022-08-20T03:06:17;18.30;99.90
43858;DHT22;29507;51.284;5.758;2022-08-20T03:08:43;18.20;99.90
43858;DHT22;29507;51.284;5.758;2022-08-20T03:11:09;18.20;99.90
43858;DHT22;29507;51.284;5.758;2022-08-20T03:13:35;18.20;99.90
43858;DHT22;29507;51.284;5.758;2022-08-20T03:16:03;18.20;99.90
43858;DHT22;29507;51.284;5.758;2022-08-20T03:18:33;18.10;99.90
43858;DHT22;29507;51.284;5.758;2022-08-20T03:20:59;18.10;99.90
43858;DHT22;29507;51.284;5.758;2022-08-20T03:23:24;18.10;99.90
43858;DHT22;29507;51.284;5.758;2022-08-20T03:25:50;18.10;99.90
43858;DHT22;29507;51.284;5.758;2022-08-20T03:28:16;18.00;99.90
43858;DHT22;29507;51.284;5.758;2022-08-20T03:30:42;18.00;99.90
43858;DHT22;29507;51.284;5.758;2022-08-20T03:33:08;18.00;99.90
43858;DHT22;29507;51.284;5.758;2022-08-20T03:35:35;18.00;99.90
43858;DHT22;29507;51.284;5.758;2022-08-20T03:38:05;18.00;99.90
43858;DHT22;29507;51.284;5.758;2022-08-20T03:40:32;18.00;99.90
43858;DHT22;29507;51.284;5.758;2022-08-20T03:42:59;18.00;99.90
43858;DHT22;29507;51.284;5.758;2022-08-20T03:45:26;18.00;99.90
43858;DHT22;29507;51.284;5.758;2022-08-20T03:47:53;18.00;99.90
43858;DHT22;29507;51.284;5.758;2022-08-20T03:50:22;18.00;99.90
43858;DHT22;29507;51.284;5.758;2022-08-20T03:52:47;17.90;99.90
43858;DHT22;29507;51.284;5.758;2022-08-20T03:55:13;17.90;99.90
43858;DHT22;29507;51.284;5.758;2022-08-20T03:57:48;17.90;99.90
43858;DHT22;29507;51.284;5.758;2022-08-20T04:00:17;17.90;99.90
43858;DHT22;29507;51.284;5.758;2022-08-20T04:02:46;17.80;99.90
43858;DHT22;29507;51.284;5.758;2022-08-20T04:05:12;17.80;99.90
43858;DHT22;29507;51.284;5.758;2022-08-20T04:07:38;17.70;99.90
43858;DHT22;29507;51.284;5.758;2022-08-20T04:10:07;17.80;99.90
43858;DHT22;29507;51.284;5.758;2022-08-20T04:12:34;17.70;99.90
43858;DHT22;29507;51.284;5.758;2022-08-20T04:15:04;17.70;99.90
43858;DHT22;29507;51.284;5.758;2022-08-20T04:17:29;17.70;99.90
43858;DHT22;29507;51.284;5.758;2022-08-20T04:19:56;17.70;99.90
43858;DHT22;29507;51.284;5.758;2022-08-20T04:22:22;17.70;99.90
43858;DHT22;29507;51.284;5.758;2022-08-20T04:24:48;17.70;99.90
43858;DHT22;29507;51.284;5.758;2022-08-20T04:27:15;17.80;99.90
43858;DHT22;29507;51.284;5.758;2022-08-20T04:29:40;17.70;99.90
43858;DHT22;29507;51.284;5.758;2022-08-20T04:32:09;17.70;99.90
43858;DHT22;29507;51.284;5.758;2022-08-20T04:34:35;17.70;99.90
43858;DHT22;29507;51.284;5.758;2022-08-20T04:37:01;17.70;99.90
43858;DHT22;29507;51.284;5.758;2022-08-20T04:39:26;17.70;99.90
43858;DHT22;29507;51.284;5.758;2022-08-20T04:41:52;17.70;99.90
43858;DHT22;29507;51.284;5.758;2022-08-20T04:44:17;17.70;99.90
43858;DHT22;29507;51.284;5.758;2022-08-20T04:46:44;17.70;99.90
43858;DHT22;29507;51.284;5.758;2022-08-20T04:49:10;17.70;99.90
43858;DHT22;29507;51.284;5.758;2022-08-20T04:51:36;17.70;99.90
43858;DHT22;29507;51.284;5.758;2022-08-20T04:54:02;17.70;99.90
43858;DHT22;29507;51.284;5.758;2022-08-20T04:56:31;17.70;99.90
43858;DHT22;29507;51.284;5.758;2022-08-20T04:59:03;17.70;99.90
43858;DHT22;29507;51.284;5.758;2022-08-20T05:01:29;17.60;99.90
43858;DHT22;29507;51.284;5.758;2022-08-20T05:03:56;17.60;99.90
43858;DHT22;29507;51.284;5.758;2022-08-20T05:06:27;17.50;99.90
43858;DHT22;29507;51.284;5.758;2022-08-20T05:08:54;17.50;99.90
43858;DHT22;29507;51.284;5.758;2022-08-20T05:11:21;17.40;99.90
43858;DHT22;29507;51.284;5.758;2022-08-20T05:13:47;17.40;99.90
43858;DHT22;29507;51.284;5.758;2022-08-20T05:16:12;17.30;99.90
43858;DHT22;29507;51.284;5.758;2022-08-20T05:18:39;17.30;99.90
43858;DHT22;29507;51.284;5.758;2022-08-20T05:21:05;17.30;99.90
43858;DHT22;29507;51.284;5.758;2022-08-20T05:23:34;17.20;99.90
43858;DHT22;29507;51.284;5.758;2022-08-20T05:26:01;17.20;99.90
43858;DHT22;29507;51.284;5.758;2022-08-20T05:28:32;17.10;99.90
43858;DHT22;29507;51.284;5.758;2022-08-20T05:30:59;17.20;99.90
43858;DHT22;29507;51.284;5.758;2022-08-20T05:33:26;17.10;99.90
43858;DHT22;29507;51.284;5.758;2022-08-20T05:35:53;17.20;99.90
43858;DHT22;29507;51.284;5.758;2022-08-20T05:38:22;17.20;99.90
43858;DHT22;29507;51.284;5.758;2022-08-20T05:40:49;17.20;99.90
43858;DHT22;29507;51.284;5.758;2022-08-20T05:43:15;17.20;99.90
43858;DHT22;29507;51.284;5.758;2022-08-20T05:45:43;17.20;99.90
43858;DHT22;29507;51.284;5.758;2022-08-20T05:48:15;17.30;99.90
43858;DHT22;29507;51.284;5.758;2022-08-20T05:50:42;17.30;99.90
43858;DHT22;29507;51.284;5.758;2022-08-20T05:53:08;17.40;99.90
43858;DHT22;29507;51.284;5.758;2022-08-20T05:55:34;17.40;99.90
43858;DHT22;29507;51.284;5.758;2022-08-20T05:58:07;17.40;99.90
43858;DHT22;29507;51.284;5.758;2022-08-20T06:00:34;17.50;99.90
43858;DHT22;29507;51.284;5.758;2022-08-20T06:03:00;17.50;99.90
43858;DHT22;29507;51.284;5.758;2022-08-20T06:05:44;17.60;99.90
43858;DHT22;29507;51.284;5.758;2022-08-20T06:08:10;17.60;99.90
43858;DHT22;29507;51.284;5.758;2022-08-20T06:10:38;17.60;99.90
43858;DHT22;29507;51.284;5.758;2022-08-20T06:13:04;17.70;99.90
43858;DHT22;29507;51.284;5.758;2022-08-20T06:15:31;17.80;99.90
43858;DHT22;29507;51.284;5.758;2022-08-20T06:17:57;17.90;99.90
43858;DHT22;29507;51.284;5.758;2022-08-20T06:20:23;17.90;99.90
43858;DHT22;29507;51.284;5.758;2022-08-20T06:22:49;17.90;99.90
43858;DHT22;29507;51.284;5.758;2022-08-20T06:25:14;17.80;99.90
43858;DHT22;29507;51.284;5.758;2022-08-20T06:27:41;17.80;99.90
43858;DHT22;29507;51.284;5.758;2022-08-20T06:30:12;17.90;99.90
43858;DHT22;29507;51.284;5.758;2022-08-20T06:32:39;17.80;99.90
43858;DHT22;29507;51.284;5.758;2022-08-20T06:35:06;17.90;99.90
43858;DHT22;29507;51.284;5.758;2022-08-20T06:37:34;18.00;99.90
43858;DHT22;29507;51.284;5.758;2022-08-20T06:42:32;18.10;99.90
43858;DHT22;29507;51.284;5.758;2022-08-20T06:44:58;18.10;99.90
43858;DHT22;29507;51.284;5.758;2022-08-20T06:47:24;18.20;99.90
43858;DHT22;29507;51.284;5.758;2022-08-20T06:49:50;18.40;99.90
43858;DHT22;29507;51.284;5.758;2022-08-20T06:52:16;18.70;99.90
43858;DHT22;29507;51.284;5.758;2022-08-20T06:54:43;18.90;99.90
43858;DHT22;29507;51.284;5.758;2022-08-20T06:57:09;18.80;99.90
43858;DHT22;29507;51.284;5.758;2022-08-20T06:59:35;18.70;99.90
43858;DHT22;29507;51.284;5.758;2022-08-20T07:02:01;18.60;99.90
43858;DHT22;29507;51.284;5.758;2022-08-20T07:04:27;18.40;99.90
43858;DHT22;29507;51.284;5.758;2022-08-20T07:06:54;18.30;99.90
43858;DHT22;29507;51.284;5.758;2022-08-20T07:09:20;18.20;99.90
43858;DHT22;29507;51.284;5.758;2022-08-20T07:11:47;18.20;99.90
43858;DHT22;29507;51.284;5.758;2022-08-20T07:14:14;18.10;99.90
43858;DHT22;29507;51.284;5.758;2022-08-20T07:16:40;18.10;99.90
43858;DHT22;29507;51.284;5.758;2022-08-20T07:19:06;18.00;99.90
43858;DHT22;29507;51.284;5.758;2022-08-20T07:21:33;18.00;99.90
43858;DHT22;29507;51.284;5.758;2022-08-20T07:23:58;17.90;99.90
43858;DHT22;29507;51.284;5.758;2022-08-20T07:26:24;17.90;99.90
43858;DHT22;29507;51.284;5.758;2022-08-20T07:28:49;17.90;99.90
43858;DHT22;29507;51.284;5.758;2022-08-20T07:31:15;17.80;99.90
43858;DHT22;29507;51.284;5.758;2022-08-20T07:34:13;17.90;99.90
43858;DHT22;29507;51.284;5.758;2022-08-20T07:36:39;17.90;99.90
43858;DHT22;29507;51.284;5.758;2022-08-20T07:39:04;17.90;99.90
43858;DHT22;29507;51.284;5.758;2022-08-20T07:41:31;17.90;99.90
43858;DHT22;29507;51.284;5.758;2022-08-20T07:43:56;17.90;99.90
43858;DHT22;29507;51.284;5.758;2022-08-20T07:46:22;17.90;99.90
43858;DHT22;29507;51.284;5.758;2022-08-20T07:48:48;18.00;99.90
43858;DHT22;29507;51.284;5.758;2022-08-20T07:51:16;18.10;99.90
43858;DHT22;29507;51.284;5.758;2022-08-20T07:53:43;18.10;99.90
43858;DHT22;29507;51.284;5.758;2022-08-20T07:56:13;18.20;99.90
43858;DHT22;29507;51.284;5.758;2022-08-20T07:58:46;18.20;99.90
43858;DHT22;29507;51.284;5.758;2022-08-20T08:01:16;18.20;99.90
43858;DHT22;29507;51.284;5.758;2022-08-20T08:03:42;18.20;99.90
43858;DHT22;29507;51.284;5.758;2022-08-20T08:06:07;18.20;99.90
43858;DHT22;29507;51.284;5.758;2022-08-20T08:08:35;18.30;99.90
43858;DHT22;29507;51.284;5.758;2022-08-20T08:11:02;18.30;99.90
43858;DHT22;29507;51.284;5.758;2022-08-20T08:13:31;18.30;99.90
43858;DHT22;29507;51.284;5.758;2022-08-20T08:15:58;18.30;99.90
43858;DHT22;29507;51.284;5.758;2022-08-20T08:18:35;18.30;99.90
43858;DHT22;29507;51.284;5.758;2022-08-20T08:21:07;18.20;99.90
43858;DHT22;29507;51.284;5.758;2022-08-20T08:23:33;18.20;99.90
43858;DHT22;29507;51.284;5.758;2022-08-20T08:25:59;18.20;99.90
43858;DHT22;29507;51.284;5.758;2022-08-20T08:28:25;18.20;99.90
43858;DHT22;29507;51.284;5.758;2022-08-20T08:30:54;18.20;99.90
43858;DHT22;29507;51.284;5.758;2022-08-20T08:33:20;18.20;99.90
43858;DHT22;29507;51.284;5.758;2022-08-20T08:38:22;18.50;99.90
43858;DHT22;29507;51.284;5.758;2022-08-20T08:40:49;18.60;99.90
43858;DHT22;29507;51.284;5.758;2022-08-20T08:43:18;18.70;99.90
43858;DHT22;29507;51.284;5.758;2022-08-20T08:46:23;18.70;99.90
43858;DHT22;29507;51.284;5.758;2022-08-20T08:48:45;18.80;99.90
43858;DHT22;29507;51.284;5.758;2022-08-20T08:51:15;18.80;99.90
43858;DHT22;29507;51.284;5.758;2022-08-20T08:53:46;18.80;99.90
43858;DHT22;29507;51.284;5.758;2022-08-20T08:56:14;18.80;99.90
43858;DHT22;29507;51.284;5.758;2022-08-20T08:58:41;18.80;99.90
43858;DHT22;29507;51.284;5.758;2022-08-20T09:01:10;18.80;99.90
43858;DHT22;29507;51.284;5.758;2022-08-20T09:03:38;18.80;99.90
43858;DHT22;29507;51.284;5.758;2022-08-20T09:06:12;18.80;99.90
43858;DHT22;29507;51.284;5.758;2022-08-20T09:08:51;18.70;99.90
43858;DHT22;29507;51.284;5.758;2022-08-20T09:11:20;18.70;99.90
43858;DHT22;29507;51.284;5.758;2022-08-20T09:13:46;18.70;99.90
43858;DHT22;29507;51.284;5.758;2022-08-20T09:16:12;18.70;99.90
43858;DHT22;29507;51.284;5.758;2022-08-20T09:18:38;18.70;99.90
43858;DHT22;29507;51.284;5.758;2022-08-20T09:21:04;18.70;99.90
43858;DHT22;29507;51.284;5.758;2022-08-20T09:23:30;18.90;99.90
43858;DHT22;29507;51.284;5.758;2022-08-20T09:25:56;19.00;99.90
43858;DHT22;29507;51.284;5.758;2022-08-20T09:28:22;19.00;99.90
43858;DHT22;29507;51.284;5.758;2022-08-20T09:30:48;19.20;99.90
43858;DHT22;29507;51.284;5.758;2022-08-20T09:33:13;19.30;99.90
43858;DHT22;29507;51.284;5.758;2022-08-20T09:35:39;19.40;99.90
43858;DHT22;29507;51.284;5.758;2022-08-20T09:38:05;19.60;99.90
43858;DHT22;29507;51.284;5.758;2022-08-20T09:40:31;19.90;99.90
43858;DHT22;29507;51.284;5.758;2022-08-20T09:42:57;20.30;99.90
43858;DHT22;29507;51.284;5.758;2022-08-20T09:45:23;20.80;99.90
43858;DHT22;29507;51.284;5.758;2022-08-20T09:47:48;21.30;99.90
43858;DHT22;29507;51.284;5.758;2022-08-20T09:50:14;22.00;99.90
43858;DHT22;29507;51.284;5.758;2022-08-20T09:52:42;22.50;99.90
43858;DHT22;29507;51.284;5.758;2022-08-20T09:55:38;22.40;99.90
43858;DHT22;29507;51.284;5.758;2022-08-20T09:58:31;22.40;99.90
43858;DHT22;29507;51.284;5.758;2022-08-20T10:01:01;22.90;99.90
43858;DHT22;29507;51.284;5.758;2022-08-20T10:03:27;23.10;99.90
43858;DHT22;29507;51.284;5.758;2022-08-20T10:05:53;23.10;99.90
43858;DHT22;29507;51.284;5.758;2022-08-20T10:08:19;23.10;99.90
43858;DHT22;29507;51.284;5.758;2022-08-20T10:10:45;23.10;99.90
43858;DHT22;29507;51.284;5.758;2022-08-20T10:13:10;23.70;99.90
43858;DHT22;29507;51.284;5.758;2022-08-20T10:15:36;24.70;99.90
43858;DHT22;29507;51.284;5.758;2022-08-20T10:18:03;25.20;97.30
43858;DHT22;29507;51.284;5.758;2022-08-20T10:20:30;25.30;97.30
43858;DHT22;29507;51.284;5.758;2022-08-20T10:22:55;24.80;96.10
43858;DHT22;29507;51.284;5.758;2022-08-20T10:25:21;24.00;99.20
43858;DHT22;29507;51.284;5.758;2022-08-20T10:27:47;23.50;99.90
43858;DHT22;29507;51.284;5.758;2022-08-20T10:30:13;23.40;99.90
43858;DHT22;29507;51.284;5.758;2022-08-20T10:32:39;23.50;99.90
43858;DHT22;29507;51.284;5.758;2022-08-20T10:35:05;24.60;99.90
43858;DHT22;29507;51.284;5.758;2022-08-20T10:37:31;24.80;94.80
43858;DHT22;29507;51.284;5.758;2022-08-20T10:39:59;24.10;96.00
43858;DHT22;29507;51.284;5.758;2022-08-20T10:42:25;24.40;99.90
43858;DHT22;29507;51.284;5.758;2022-08-20T10:44:50;25.00;96.80
43858;DHT22;29507;51.284;5.758;2022-08-20T10:47:28;26.00;95.50
43858;DHT22;29507;51.284;5.758;2022-08-20T10:49:57;27.00;89.10
43858;DHT22;29507;51.284;5.758;2022-08-20T10:52:23;26.90;85.60
43858;DHT22;29507;51.284;5.758;2022-08-20T10:54:50;27.10;87.10
43858;DHT22;29507;51.284;5.758;2022-08-20T10:57:19;26.90;83.40
43858;DHT22;29507;51.284;5.758;2022-08-20T10:59:47;26.80;83.10
43858;DHT22;29507;51.284;5.758;2022-08-20T11:02:13;26.50;82.90
43858;DHT22;29507;51.284;5.758;2022-08-20T11:04:38;26.50;84.70
43858;DHT22;29507;51.284;5.758;2022-08-20T11:09:41;27.30;79.50
43858;DHT22;29507;51.284;5.758;2022-08-20T11:12:07;26.90;80.40
43858;DHT22;29507;51.284;5.758;2022-08-20T11:14:33;26.80;79.50
43858;DHT22;29507;51.284;5.758;2022-08-20T11:17:00;26.40;81.30
43858;DHT22;29507;51.284;5.758;2022-08-20T11:19:27;26.20;83.20
43858;DHT22;29507;51.284;5.758;2022-08-20T11:21:53;26.40;82.20
43858;DHT22;29507;51.284;5.758;2022-08-20T11:24:19;26.90;81.50
43858;DHT22;29507;51.284;5.758;2022-08-20T11:26:46;27.00;79.00
43858;DHT22;29507;51.284;5.758;2022-08-20T11:29:12;27.50;79.80
43858;DHT22;29507;51.284;5.758;2022-08-20T11:31:38;28.40;77.10
43858;DHT22;29507;51.284;5.758;2022-08-20T11:34:04;28.10;74.30
43858;DHT22;29507;51.284;5.758;2022-08-20T11:36:29;27.60;78.40
43858;DHT22;29507;51.284;5.758;2022-08-20T11:38:55;27.90;75.00
43858;DHT22;29507;51.284;5.758;2022-08-20T11:41:21;28.30;75.70
43858;DHT22;29507;51.284;5.758;2022-08-20T11:43:47;28.60;72.80
43858;DHT22;29507;51.284;5.758;2022-08-20T11:46:13;29.00;71.30
43858;DHT22;29507;51.284;5.758;2022-08-20T11:48:38;29.00;71.50
43858;DHT22;29507;51.284;5.758;2022-08-20T11:51:04;29.30;70.40
43858;DHT22;29507;51.284;5.758;2022-08-20T11:53:29;29.00;69.50
43858;DHT22;29507;51.284;5.758;2022-08-20T11:55:55;29.10;71.50
43858;DHT22;29507;51.284;5.758;2022-08-20T11:58:21;29.30;68.30
43858;DHT22;29507;51.284;5.758;2022-08-20T12:00:46;30.30;67.90
43858;DHT22;29507;51.284;5.758;2022-08-20T12:03:12;30.10;67.20
43858;DHT22;29507;51.284;5.758;2022-08-20T12:05:40;29.90;66.50
43858;DHT22;29507;51.284;5.758;2022-08-20T12:08:06;29.40;68.30
43858;DHT22;29507;51.284;5.758;2022-08-20T12:10:32;29.50;70.30
43858;DHT22;29507;51.284;5.758;2022-08-20T12:12:58;29.60;67.30
43858;DHT22;29507;51.284;5.758;2022-08-20T12:15:24;29.80;67.70
43858;DHT22;29507;51.284;5.758;2022-08-20T12:17:51;29.60;66.30
43858;DHT22;29507;51.284;5.758;2022-08-20T12:20:17;29.60;66.90
43858;DHT22;29507;51.284;5.758;2022-08-20T12:22:42;29.50;65.80
43858;DHT22;29507;51.284;5.758;2022-08-20T12:25:09;28.60;66.60
43858;DHT22;29507;51.284;5.758;2022-08-20T12:27:36;27.40;68.50
43858;DHT22;29507;51.284;5.758;2022-08-20T12:30:06;26.40;71.80
43858;DHT22;29507;51.284;5.758;2022-08-20T12:32:32;25.80;74.40
43858;DHT22;29507;51.284;5.758;2022-08-20T12:34:58;25.40;75.60
43858;DHT22;29507;51.284;5.758;2022-08-20T12:37:27;25.30;77.90
43858;DHT22;29507;51.284;5.758;2022-08-20T12:39:55;26.50;76.20
43858;DHT22;29507;51.284;5.758;2022-08-20T12:42:21;26.60;72.30
43858;DHT22;29507;51.284;5.758;2022-08-20T12:44:47;25.90;73.90
43858;DHT22;29507;51.284;5.758;2022-08-20T12:47:17;26.10;73.20
43858;DHT22;29507;51.284;5.758;2022-08-20T12:49:47;27.50;71.80
43858;DHT22;29507;51.284;5.758;2022-08-20T12:52:14;27.10;71.30
43858;DHT22;29507;51.284;5.758;2022-08-20T12:54:40;26.30;72.50
43858;DHT22;29507;51.284;5.758;2022-08-20T12:57:10;25.70;73.90
43858;DHT22;29507;51.284;5.758;2022-08-20T12:59:37;25.60;74.80
43858;DHT22;29507;51.284;5.758;2022-08-20T13:02:02;25.60;74.40
43858;DHT22;29507;51.284;5.758;2022-08-20T13:04:28;26.10;72.70
43858;DHT22;29507;51.284;5.758;2022-08-20T13:06:59;26.50;72.20
43858;DHT22;29507;51.284;5.758;2022-08-20T13:09:25;26.70;72.60
43858;DHT22;29507;51.284;5.758;2022-08-20T13:11:51;27.00;69.40
43858;DHT22;29507;51.284;5.758;2022-08-20T13:14:16;26.90;67.50
43858;DHT22;29507;51.284;5.758;2022-08-20T13:16:42;26.60;68.60
43858;DHT22;29507;51.284;5.758;2022-08-20T13:19:07;26.40;67.70
43858;DHT22;29507;51.284;5.758;2022-08-20T13:21:33;28.10;67.80
43858;DHT22;29507;51.284;5.758;2022-08-20T13:23:59;29.50;64.90
43858;DHT22;29507;51.284;5.758;2022-08-20T13:26:24;30.00;63.10
43858;DHT22;29507;51.284;5.758;2022-08-20T13:28:50;28.80;62.50
43858;DHT22;29507;51.284;5.758;2022-08-20T13:31:15;27.90;64.80
43858;DHT22;29507;51.284;5.758;2022-08-20T13:33:41;29.10;63.80
43858;DHT22;29507;51.284;5.758;2022-08-20T13:36:07;30.10;61.20
43858;DHT22;29507;51.284;5.758;2022-08-20T13:38:32;30.30;57.10
43858;DHT22;29507;51.284;5.758;2022-08-20T13:40:58;31.00;57.60
43858;DHT22;29507;51.284;5.758;2022-08-20T13:43:23;31.90;57.20
43858;DHT22;29507;51.284;5.758;2022-08-20T13:45:49;31.10;57.60
43858;DHT22;29507;51.284;5.758;2022-08-20T13:48:14;30.10;56.80
43858;DHT22;29507;51.284;5.758;2022-08-20T13:50:40;29.30;57.80
43858;DHT22;29507;51.284;5.758;2022-08-20T13:53:05;28.90;57.90
43858;DHT22;29507;51.284;5.758;2022-08-20T13:55:31;29.30;58.80
43858;DHT22;29507;51.284;5.758;2022-08-20T13:57:57;30.00;57.80
43858;DHT22;29507;51.284;5.758;2022-08-20T14:00:25;30.10;58.30
43858;DHT22;29507;51.284;5.758;2022-08-20T14:02:51;30.60;57.20
43858;DHT22;29507;51.284;5.758;2022-08-20T14:05:17;30.30;57.10
43858;DHT22;29507;51.284;5.758;2022-08-20T14:07:43;29.90;57.00
43858;DHT22;29507;51.284;5.758;2022-08-20T14:10:12;30.10;57.70
43858;DHT22;29507;51.284;5.758;2022-08-20T14:12:38;29.40;56.20
43858;DHT22;29507;51.284;5.758;2022-08-20T14:15:05;28.60;57.90
43858;DHT22;29507;51.284;5.758;2022-08-20T14:17:38;29.50;59.30
43858;DHT22;29507;51.284;5.758;2022-08-20T14:20:12;29.70;56.50
43858;DHT22;29507;51.284;5.758;2022-08-20T14:22:39;28.90;57.70
43858;DHT22;29507;51.284;5.758;2022-08-20T14:25:06;28.20;59.70
43858;DHT22;29507;51.284;5.758;2022-08-20T14:27:32;27.60;61.00
43858;DHT22;29507;51.284;5.758;2022-08-20T14:29:59;27.10;61.90
43858;DHT22;29507;51.284;5.758;2022-08-20T14:32:26;27.10;63.10
43858;DHT22;29507;51.284;5.758;2022-08-20T14:34:52;27.50;61.60
43858;DHT22;29507;51.284;5.758;2022-08-20T14:37:24;27.80;61.40
43858;DHT22;29507;51.284;5.758;2022-08-20T14:39:52;27.50;61.60
43858;DHT22;29507;51.284;5.758;2022-08-20T14:42:19;27.90;60.30
43858;DHT22;29507;51.284;5.758;2022-08-20T14:44:47;27.20;60.20
43858;DHT22;29507;51.284;5.758;2022-08-20T14:47:22;26.50;61.60
43858;DHT22;29507;51.284;5.758;2022-08-20T14:49:49;26.10;63.60
43858;DHT22;29507;51.284;5.758;2022-08-20T14:52:16;26.10;64.90
43858;DHT22;29507;51.284;5.758;2022-08-20T14:54:43;25.90;64.70
43858;DHT22;29507;51.284;5.758;2022-08-20T14:57:10;25.90;64.70
43858;DHT22;29507;51.284;5.758;2022-08-20T14:59:36;26.20;66.00
43858;DHT22;29507;51.284;5.758;2022-08-20T15:02:07;26.60;62.40
43858;DHT22;29507;51.284;5.758;2022-08-20T15:04:34;26.60;63.30
43858;DHT22;29507;51.284;5.758;2022-08-20T15:07:00;26.20;63.00
43858;DHT22;29507;51.284;5.758;2022-08-20T15:09:30;26.30;63.50
43858;DHT22;29507;51.284;5.758;2022-08-20T15:11:57;26.50;63.60
43858;DHT22;29507;51.284;5.758;2022-08-20T15:14:22;26.80;62.50
43858;DHT22;29507;51.284;5.758;2022-08-20T15:16:48;26.70;61.50
43858;DHT22;29507;51.284;5.758;2022-08-20T15:19:14;26.60;62.00
43858;DHT22;29507;51.284;5.758;2022-08-20T15:21:39;26.30;62.20
43858;DHT22;29507;51.284;5.758;2022-08-20T15:24:05;26.10;63.00
43858;DHT22;29507;51.284;5.758;2022-08-20T15:26:31;26.30;62.90
43858;DHT22;29507;51.284;5.758;2022-08-20T15:28:57;26.60;59.80
43858;DHT22;29507;51.284;5.758;2022-08-20T15:31:22;26.40;59.40
43858;DHT22;29507;51.284;5.758;2022-08-20T15:33:48;26.10;61.40
43858;DHT22;29507;51.284;5.758;2022-08-20T15:36:14;25.90;61.90
43858;DHT22;29507;51.284;5.758;2022-08-20T15:38:39;25.70;62.20
43858;DHT22;29507;51.284;5.758;2022-08-20T15:41:05;25.40;62.80
43858;DHT22;29507;51.284;5.758;2022-08-20T15:43:32;25.30;63.60